Tiempo atmosférico en la estación meteorológica de Cabo Busto, Asturias (63 m.)



Fecha
DESCASC
Temp. máxima en grados centígrados (hora)
DESCASC
Temp. mínima en grados centígrados (hora)
DESCASC
Temp. media en grados centígrados
DESCASC
Racha de viento máxima en m/sg (hora)
DESCASC
Velocidad máxima media en intervalos de 10 minutos(hora)
DESCASC
Precipitaciones diarias en mm
DESCASC
Precipitaciones de 00:00 a 06:00 en mm
DESCASC
Precipitaciones de 06:00 a 12:00 en mm
DESCASC
Precipitaciones de 12:00 a 18:00 en mm
DESCASC
Precipitaciones de 18:00 a 24:00 en mm
DESCASC
15-08-2019 22.7 (14:40) 16.2 (23:59) 19.5 8.61 (00:50) 5.83 (00:50) 0.4 0.4 0 0 0
14-08-2019 24.7 (18:20) 14.7 (00:00) 19.7 10.83 (20:50) 6.39 (23:40) 0.6 0 0 0 0.6
13-08-2019 21.7 (16:30) 12.4 (00:00) 17.1 11.67 (17:30) 5.56 (07:50) 0 0 0 0 0
12-08-2019 23.9 (14:20) 15.3 (00:00) 19.6 11.11 (10:50) 7.78 (09:20) 0 0 0 0 0
11-08-2019 22.6 (12:00) 15.6 (00:00) 19.1 -- (--) -- (--) 1.2 0 0 1.2 0
10-08-2019 23.8 (11:20) 18.8 (00:00) 21.3 12.5 (03:00) 9.72 (13:20) 0 0 0 0 0
09-08-2019 27.5 (15:50) 20.3 (00:00) 23.9 26.11 (15:40) 17.78 (16:40) 0.4 0.4 0 0 0
08-08-2019 26.7 (15:30) 20.3 (00:00) 23.5 8.06 (16:30) 5.56 (16:30) 1.2 1.2 0 0 0
07-08-2019 23.3 (16:00) 17.8 (00:00) 20.5 6.94 (23:50) 5 (23:50) 0.4 0.2 0 0 0.2
06-08-2019 24.1 (14:40) 16.8 (00:00) 20.4 6.67 (22:50) 4.72 (22:50) 0 0 0 0 0
05-08-2019 23.3 (16:10) 17 (00:00) 20.1 10.56 (16:50) 3.61 (08:10) 0 0 0 0 0
04-08-2019 23.4 (14:00) 17.7 (00:00) 20.6 5.56 (22:00) 4.17 (22:00) 0 0 0 0 0
03-08-2019 23.8 (17:40) 17 (00:00) 20.4 5 (04:30) 3.89 (17:50) 0 0 0 0 0
02-08-2019 22.6 (13:20) 15.3 (00:00) 19 12.22 (17:20) 7.5 (17:20) 0 0 0 0 0
01-08-2019 21.3 (17:30) 18.5 (00:00) 19.9 10.83 (13:10) 6.39 (13:50) 0 0 0 0 0
31-07-2019 21.1 (13:20) 11.9 (00:00) 16.5 12.5 (19:00) 7.5 (21:10) 0 0 0 0 0
30-07-2019 23.6 (14:40) 14.8 (00:00) 19.2 16.94 (07:40) 10.56 (00:20) 0 0 0 0 0
29-07-2019 24 (13:40) 17.2 (00:00) 20.6 22.78 (14:40) 13.89 (12:30) 0 0 0 0 0
28-07-2019 21.8 (14:00) 12.9 (00:00) 17.3 11.39 (20:10) 7.22 (20:10) 0 0 0 0 0
27-07-2019 20.9 (18:50) 14.9 (00:00) 17.9 8.61 (18:00) 5.83 (18:10) 5.4 0.2 5 0.2 0
26-07-2019 23 (14:50) 16.5 (00:00) 19.8 9.17 (12:40) 7.22 (12:40) 0.2 0 0 0 0.2
25-07-2019 24.3 (13:50) 17.9 (00:00) 21.1 9.44 (14:30) 7.5 (14:30) 2 0 0 0 2
24-07-2019 23.4 (15:40) 17.5 (00:00) 20.4 8.33 (12:20) 5.83 (12:20) 0 0 0 0 0
23-07-2019 24 (12:50) 18.5 (00:00) 21.3 8.33 (08:50) 6.39 (17:50) 0 0 0 0 0
22-07-2019 21.6 (15:20) 18.9 (00:00) 20.3 11.39 (17:30) 7.78 (20:00) 0 0 0 0 0
21-07-2019 21.7 (17:30) 18.6 (00:00) 20.2 10.28 (18:50) 7.5 (18:50) 1.6 0 1.6 0 0
20-07-2019 24.4 (14:40) 16.8 (00:00) 20.6 5 (08:30) 3.89 (07:50) 0 0 0 0 0
19-07-2019 23.1 (15:30) 17.1 (00:00) 20.1 5 (06:10) 3.61 (07:00) 0 0 0 0 0

Gráficas

Temp. máximas Temp. mínimas Temp. medias Precipitaciones Rachas de viento máximas Velocidades máximas media en intervalos de 10 minutos

Datos horarios

Fecha y hora oficial Temperatura (ºC) Velocidad del viento (km/h) Dirección del viento Racha (km/h) Dirección de racha Precipitación (mm) Presión (hPa) Tendencia (hPa) Humedad (%)
2019-08-17 23:00:00 22.6 10 Este 16 Este 0 1003.9 -0.8 71
2019-08-17 22:00:00 22.5 8 Este 14 Este 0 1004 -0.9 71
2019-08-17 21:00:00 23.5 8 Este 14 Este 0 1004.4 -0.5 70
2019-08-17 20:00:00 24.4 7 Este 14 Este 0 1004.7 -0.5 68
2019-08-17 19:00:00 25.1 8 Este 15 Este 0 1004.9 -0.8 66
2019-08-17 18:00:00 26.4 7 Este 17 Este 0 1004.9 -1.3 58
2019-08-17 17:00:00 26.8 8 Este 17 Este 0 1005.2 -0.9 59
2019-08-17 16:00:00 26.2 10 Este 17 Noroeste 0 1005.7 -0.7 60
2019-08-17 15:00:00 26.7 10 Noroeste 27 Oeste 0 1006.2 -0.5 57
2019-08-17 14:00:00 26.1 22 Oeste 38 Oeste 0 1006.1 -0.9 59
2019-08-17 13:00:00 26.7 22 Oeste 41 Oeste 0 1006.4 -1 57
2019-08-17 12:00:00 26.9 23 Oeste 41 Oeste 0 1006.7 -0.8 55
2019-08-17 11:00:00 25.9 24 Oeste 36 Sudoeste 0 1007 -0.7 52
2019-08-17 10:00:00 23 11 Sudoeste 19 Sur 0 1007.4 -0.3 63
2019-08-17 09:00:00 18.1 13 Sur 23 Sudeste 0 1007.5 0 79
2019-08-17 08:00:00 16.5 14 Sudeste 21 Sudeste 0 1007.7 0 85
2019-08-17 07:00:00 17.5 10 Sudoeste 15 Sudoeste 0 1007.7 -0.2 84
2019-08-17 06:00:00 17.3 13 Sudeste 18 Sudeste 0 1007.5 -0.8 85
2019-08-17 05:00:00 17.1 12 Sur 14 Sudeste 0 1007.7 -1 85
2019-08-17 04:00:00 17.5 10 Sudeste 17 Sur 0 1007.9 -1 85
2019-08-17 03:00:00 17.8 8 Sur 17 Sur 0 1008.3 -0.9 83
2019-08-17 02:00:00 18.2 13 Sur 19 Sur 0 1008.7 -1 82
2019-08-17 01:00:00 18.4 15 Sudeste 22 Sudeste 0 1008.9 -0.4 81
2019-08-17 00:00:00 19.2 16 Sudeste 21 Sudeste 0 1009.2 -0.1 79
2019-08-16 23:00:00 20.4 8 Este 17 Este 0 1009.7 0.1 74
2019-08-16 22:00:00 20.2 9 Sudeste 13 Sudeste 0 1009.3 -0.5 74
2019-08-16 21:00:00 21.4 3 Sudeste 9 Sudeste 0 1009.3 -0.6 69
2019-08-16 20:00:00 21.9 3 Nordeste 11 Noroeste 0 1009.6 -0.9 68
2019-08-16 19:00:00 21.9 3 Este 18 Noroeste 0 1009.8 -0.9 67
2019-08-16 18:00:00 22 8 Noroeste 17 Noroeste 0 1009.9 -0.7 68
2019-08-16 17:00:00 21.5 12 Oeste 30 Oeste 0 1010.5 0 72
2019-08-16 16:00:00 21.8 19 Oeste 27 Oeste 0 1010.7 -0.4 70
2019-08-16 15:00:00 23.3 15 Oeste 25 Oeste 0 1010.6 -0.7 65
2019-08-16 14:00:00 23.8 9 Oeste 18 Oeste 0 1010.5 -0.3 65
2019-08-16 13:00:00 23.3 13 Oeste 22 Oeste 0 1011.1 -0.3 67
2019-08-16 12:00:00 22.8 12 Oeste 22 Oeste 0 1011.3 -0.3 70
2019-08-16 11:00:00 20.3 6 Noroeste 11 Oeste 0 1010.8 -0.6 68
2019-08-16 10:00:00 18.3 7 Oeste 12 Sudeste 0 1011.4 -0.2 77
2019-08-16 09:00:00 15.4 11 Sudeste 19 Sudeste 0 1011.6 0.3 86
2019-08-16 08:00:00 13.5 15 Sudeste 19 Sudeste 0 1011.4 -0.2 87
2019-08-16 07:00:00 13.9 11 Sur 16 Sudeste 0 1011.6 -0.9 86
2019-08-16 06:00:00 13.6 13 Sudeste 18 Sudeste 0 1011.3 -1.5 86
2019-08-16 05:00:00 13.9 16 Sur 20 Sudeste 0 1011.6 -1.5 85
2019-08-16 04:00:00 15.4 11 Sudoeste 16 Sur 0 1012.5 -0.9 85
2019-08-16 03:00:00 14.5 14 Sur 18 Sudeste 0 1012.8 -1.2 83
2019-08-16 02:00:00 15.3 11 Sudeste 22 Sudeste 0 1013.1 -1.4 81
2019-08-16 01:00:00 15.4 17 Sudeste 23 Sudeste 0 1013.4 -1.1 80
2019-08-16 00:00:00 16.2 11 Sudeste 17 Sudeste 0 1014 -0.7 75
2019-08-15 23:00:00 18.2 7 Este 25 Este 0 1014.5 0.2 68
2019-08-15 22:00:00 19.3 15 Este 26 Este 0 1014.5 -0.1 65
2019-08-15 21:00:00 20.2 10 Norte 27 Nordeste 0 1014.7 -0.4 64
2019-08-15 20:00:00 20.8 11 Nordeste 26 Norte 0 1014.3 -1.2 61
2019-08-15 19:00:00 21.3 10 Nordeste 27 Nordeste 0 1014.6 -1.2 63
2019-08-15 18:00:00 21.9 12 Nordeste 23 Nordeste 0 1015.1 -0.8 58
2019-08-15 17:00:00 21.9 10 Nordeste 21 Nordeste 0 1015.5 -0.6 57
2019-08-15 16:00:00 22 9 Nordeste 20 Nordeste 0 1015.8 -0.5 58
2019-08-15 15:00:00 22.2 9 Nordeste 19 Nordeste 0 1015.9 -0.2 60
2019-08-15 14:00:00 21.3 5 Norte 11 Nordeste 0 1016.1 0.2 68
2019-08-15 13:00:00 21 5 Noroeste 10 Oeste 0 1016.3 0.4 70
2019-08-15 12:00:00 20.4 5 Noroeste 10 Oeste 0 1016.1 0.5 74
2019-08-15 11:00:00 19.8 5 Oeste 8 Oeste 0 1015.9 0.5 76
2019-08-15 10:00:00 18.4 6 Sur 13 Sudeste 0 1015.9 0.6 82
2019-08-15 09:00:00 17.7 10 Sur 14 Sur 0 1015.6 0.3 85
2019-08-15 08:00:00 17.2 10 Sur 14 Sur 0 1015.4 0.3 85
2019-08-15 07:00:00 17.4 6 Sur 17 Oeste 0 1015.3 0 83
2019-08-15 06:00:00 17.7 12 Oeste 21 Oeste 0 1015.3 -0.1 83
2019-08-15 05:00:00 17.7 16 Oeste 23 Oeste 0 1015.1 -0.3 85
2019-08-15 04:00:00 17.6 11 Sudoeste 22 Oeste 0 1015.3 0.3 87
2019-08-15 03:00:00 17.5 15 Oeste 27 Oeste 0 1015.4 0.4 88
2019-08-15 02:00:00 18 12 Oeste 27 Oeste 0.2 1015.4 0.6 89
2019-08-15 01:00:00 18.1 19 Oeste 31 Oeste 0.2 1015 0.9 89
2019-08-15 00:00:00 18.5 16 Oeste 32 Oeste 0.6 1015 1.4 89
2019-08-14 23:00:00 19.3 16 Oeste 27 Noroeste 0 1014.8 1.5 88
2019-08-14 22:00:00 20 14 Oeste 35 Noroeste 0 1014.1 1 85
2019-08-14 21:00:00 20.6 18 Oeste 39 Oeste 0 1013.6 0.5 84
2019-08-14 20:00:00 21.5 17 Oeste 35 Oeste 0 1013.3 0.1 79
2019-08-14 19:00:00 22.6 14 Oeste 22 Oeste 0 1013.1 -0.2 73
2019-08-14 18:00:00 23.4 15 Oeste 22 Oeste 0 1013.1 0.1 72
2019-08-14 17:00:00 23 18 Oeste 23 Oeste 0 1013.2 0.2 70
2019-08-14 16:00:00 23.2 10 Oeste 19 Oeste 0 1013.3 0.4 67
2019-08-14 15:00:00 24.4 6 Oeste 13 Noroeste 0 1013 0.3 61
2019-08-14 14:00:00 23.8 8 Noroeste 21 Oeste 0 1013 0.2 56
2019-08-14 13:00:00 22.7 7 Norte 14 Noroeste 0 1012.9 0.2 60
2019-08-14 12:00:00 22.4 4 Sudoeste 10 Sudoeste 0 1012.7 0.5 56
2019-08-14 11:00:00 20.5 4 Oeste 9 Sur 0 1012.8 0.6 63
2019-08-14 10:00:00 18.8 3 Sudeste 16 Sudeste 0 1012.7 0.4 71
2019-08-14 09:00:00 16.4 11 Sudeste 17 Sudeste 0 1012.2 -0.4 79
2019-08-14 08:00:00 15.1 12 Sudeste 21 Sur 0 1012.2 0.1 83
2019-08-14 07:00:00 14.9 13 Sur 19 Sur 0 1012.3 -0.6 84
2019-08-14 06:00:00 15 10 Sur 15 Sur 0 1012.6 -0.3 84
2019-08-14 05:00:00 15.2 13 Sur 17 Sur 0 1012.1 -1.1 83
2019-08-14 04:00:00 15.5 12 Sur 19 Sur 0 1012.9 -1 84
2019-08-14 03:00:00 15.6 13 Sur 19 Sur 0 1012.9 -1.2 84
2019-08-14 02:00:00 15.8 14 Sur 18 Sur 0 1013.2 -1.1 83
2019-08-14 01:00:00 16.3 7 Sudeste 17 Sur 0 1013.9 -0.1 82
2019-08-14 00:00:00 16.5 11 Sur 14 Sur 0 1014.1 0.2 80
2019-08-13 23:00:00 18.2 6 Sudeste 23 Este 0 1014.3 0.4 72
2019-08-13 22:00:00 19.3 13 Nordeste 30 Nordeste 0 1014 -0.1 71
2019-08-13 21:00:00 19.8 17 Nordeste 33 Nordeste 0 1013.9 0.2 68
2019-08-13 20:00:00 20.2 18 Nordeste 33 Nordeste 0 1013.9 -0.2 67
2019-08-13 19:00:00 21.1 14 Nordeste 40 Nordeste 0 1014.1 -0.5 64
2019-08-13 18:00:00 21.4 14 Norte 42 Nordeste 0 1013.7 -1.4 61
2019-08-13 17:00:00 21.6 17 Nordeste 38 Nordeste 0 1014.1 -1.5 60
2019-08-13 16:00:00 21.2 15 Nordeste 35 Nordeste 0 1014.6 -1.1 63
2019-08-13 15:00:00 20.8 18 Nordeste 33 Nordeste 0 1015.1 -0.7 62
2019-08-13 14:00:00 21 9 Noroeste 23 Nordeste 0 1015.6 -0.3 62
2019-08-13 13:00:00 21.1 6 Oeste 23 Norte 0 1015.7 -0.3 62
2019-08-13 12:00:00 20.9 5 Oeste 13 Norte 0 1015.8 -0.1 63
2019-08-13 11:00:00 19.6 6 Nordeste 13 Nordeste 0 1015.9 0.3 63
2019-08-13 10:00:00 17.5 9 Sudeste 18 Sudeste 0 1016 0.5 71
2019-08-13 09:00:00 14.1 15 Sudeste 24 Sudeste 0 1015.9 0.6 81
2019-08-13 08:00:00 12.6 19 Sudeste 24 Sudeste 0 1015.6 0 84
2019-08-13 07:00:00 12.5 17 Sudeste 21 Sudeste 0 1015.5 -0.4 84
2019-08-13 06:00:00 13 17 Sudeste 21 Sudeste 0 1015.3 -1.3 84
2019-08-13 05:00:00 13.1 15 Sudeste 20 Sudeste 0 1015.6 -1.6 84
2019-08-13 04:00:00 13.6 15 Sudeste 20 Sudeste 0 1015.9 -1.6 82
2019-08-13 03:00:00 14.3 14 Sudeste 19 Sudeste 0 1016.6 -1.5 81
2019-08-13 02:00:00 14.6 13 Sudeste 19 Sudeste 0 1017.2 -0.8 79
2019-08-13 01:00:00 15.2 14 Sudeste 18 Sudeste 0 1017.5 -0.2 78
2019-08-13 00:00:00 15.3 11 Sudeste 14 Sudeste 0 1018.1 0.9 76
2019-08-12 23:00:00 16.6 6 Sudeste 9 Este 0 1018 1.3 69
2019-08-12 22:00:00 18 5 Noroeste 13 Oeste 0 1017.7 1.3 60
2019-08-12 21:00:00 18.7 7 Noroeste 18 Noroeste 0 1017.2 0.8 61
2019-08-12 20:00:00 19.1 10 Noroeste 18 Noroeste 0 1016.7 0 62
2019-08-12 19:00:00 19.6 10 Noroeste 16 Noroeste 0 1016.4 -0.7 61
2019-08-12 18:00:00 19.7 11 Noroeste 24 Noroeste 0 1016.4 -1 59
2019-08-12 17:00:00 21.3 15 Noroeste 30 Noroeste 0 1016.7 -0.6 53
2019-08-12 16:00:00 20.9 20 Oeste 26 Noroeste 0 1017.1 -0.1 57
2019-08-12 15:00:00 22.7 13 Oeste 27 Oeste 0 1017.4 0.3 51
2019-08-12 14:00:00 23.2 13 Oeste 34 Oeste 0 1017.3 0.9 55
2019-08-12 13:00:00 23.2 15 Oeste 33 Oeste 0 1017.2 1.3 54
2019-08-12 12:00:00 20.6 17 Oeste 37 Oeste 0 1017.1 1.6 59
2019-08-12 11:00:00 20.2 25 Oeste 40 Oeste 0 1016.4 1.4 62
2019-08-12 10:00:00 18.3 26 Oeste 34 Oeste 0 1015.9 1.2 66
2019-08-12 09:00:00 17.1 19 Oeste 35 Oeste 0 1015.5 1.2 67
2019-08-12 08:00:00 16.1 21 Oeste 31 Oeste 0 1015 0.8 70
2019-08-12 07:00:00 15.8 15 Sudoeste 30 Oeste 0 1014.7 0.3 70
2019-08-12 06:00:00 16.3 20 Oeste 37 Oeste 0 1014.3 -0.4 69
2019-08-12 05:00:00 16.6 23 Oeste 33 Oeste 0 1014.2 -0.5 68
2019-08-12 04:00:00 16.5 14 Sudoeste 27 Oeste 0 1014.4 -0.4 68
2019-08-12 03:00:00 16.7 15 Sudoeste 27 Oeste 0 1014.7 0 68
2019-08-12 02:00:00 16.2 15 Sudoeste 27 Oeste 0 1014.7 0.3 72
2019-08-12 01:00:00 17 14 Sudoeste 24 Oeste 0 1014.8 0.8 70
2019-08-12 00:00:00 16.8 13 Sudoeste 26 Sudoeste 0 1014.7 1.6 71
2019-08-11 23:00:00 17.4 12 Oeste 27 Noroeste 0 1014.4 1.5 71
2019-08-11 22:00:00 17.8 16 Oeste -- -- 0 1014 1.1 71
2019-08-11 21:00:00 18.2 -- -- -- -- 0 1013.1 0.1 66
2019-08-11 20:00:00 19.7 -- -- -- -- 0 1012.9 -0.2 65
2019-08-11 19:00:00 20.3 -- -- -- -- 0 1012.9 0 68
2019-08-11 18:00:00 18.5 -- -- -- -- 0.2 1013 1.2 73
2019-08-11 17:00:00 16.9 -- -- -- -- 1 1013.1 1.2 77
2019-08-11 16:00:00 16.8 -- -- -- -- 0 1012.9 1 71
2019-08-11 15:00:00 20 33 Noroeste 41 Oeste 0 1011.8 -0.2 66
2019-08-11 14:00:00 21.1 21 Oeste 37 Noroeste 0 1011.9 0.2 57
2019-08-11 13:00:00 20.2 31 Oeste 37 Oeste 0 1011.9 0.4 57
2019-08-11 12:00:00 22.3 20 Oeste 33 Oeste 0 1012 0.5 54
2019-08-11 11:00:00 21.5 12 Oeste 27 Oeste 0 1011.7 0.7 60
2019-08-11 10:00:00 19.6 16 Oeste 22 Oeste 0 1011.5 0.4 64
2019-08-11 09:00:00 17.7 14 Oeste 24 Oeste 0 1011.5 0.4 72
2019-08-11 08:00:00 17.4 14 Oeste 22 Oeste 0 1011 -0.4 73
2019-08-11 07:00:00 17.6 9 Sudoeste 15 Sudoeste 0 1011.1 -0.7 73
2019-08-11 06:00:00 18 7 Oeste 14 Sudoeste 0 1011.1 -1 73
2019-08-11 05:00:00 18.1 9 Oeste 14 Oeste 0 1011.4 -1.4 72
2019-08-11 04:00:00 18.2 8 Oeste 15 Oeste 0 1011.8 -1.3 76
2019-08-11 03:00:00 18.1 8 Sudoeste 11 Sudoeste 0 1012.1 -1.1 78
2019-08-11 02:00:00 17.9 8 Sur 10 Sur 0 1012.8 -0.9 78
2019-08-11 01:00:00 18.4 6 Sur 9 Sur 0 1013.1 -0.5 77
2019-08-11 00:00:00 18.8 4 Sudoeste 6 Sudoeste 0 1013.2 -0.3 76
2019-08-10 23:00:00 19 3 Sur 6 Oeste 0 1013.7 0.3 74
2019-08-10 22:00:00 19.3 4 Oeste 12 Oeste 0 1013.6 0.5 73
2019-08-10 21:00:00 19.7 8 Oeste 23 Noroeste 0 1013.5 0.3 72
2019-08-10 20:00:00 20.2 15 Oeste 26 Noroeste 0 1013.4 0.3 70
2019-08-10 19:00:00 21.3 10 Noroeste 17 Oeste 0 1013.1 0.2 66
2019-08-10 18:00:00 22.2 12 Noroeste 17 Oeste 0 1013.2 0.3 60
2019-08-10 17:00:00 22.8 12 Noroeste 28 Noroeste 0 1013.1 0.9 59
2019-08-10 16:00:00 22.6 18 Noroeste 34 Noroeste 0 1012.9 0.6 62
2019-08-10 15:00:00 22.5 7 Noroeste 35 Noroeste 0 1012.9 0.3 62
2019-08-10 14:00:00 21.9 31 Noroeste 42 Oeste 0 1012.2 -0.6 59
2019-08-10 13:00:00 20.9 32 Oeste 40 Noroeste 0 1012.3 -0.1 65
2019-08-10 12:00:00 21.4 27 Noroeste -- -- 0 1012.6 0.4 63
2019-08-10 11:00:00 23.3 17 Oeste 37 Oeste 0 1012.8 1 49
2019-08-10 10:00:00 21.4 18 Oeste 33 Oeste 0 1012.4 1.4 54
2019-08-10 09:00:00 20.1 16 Oeste 23 Sudoeste 0 1012.2 1.5 59
2019-08-10 08:00:00 19.1 13 Sudoeste 29 Noroeste 0 1011.8 1.6 61
2019-08-10 07:00:00 19.2 18 Oeste 32 Oeste 0 1011 0.9 62
2019-08-10 06:00:00 19.7 26 Oeste 38 Sudoeste 0 1010.7 1.1 59
2019-08-10 05:00:00 20.1 32 Oeste 40 Oeste 0 1010.2 0 55
2019-08-10 04:00:00 20.2 26 Oeste 42 Oeste 0 1010.1 0.3 56
2019-08-10 03:00:00 20.5 33 Oeste 45 Oeste 0 1009.6 0.3 55
2019-08-10 02:00:00 20.3 15 Oeste 27 Oeste 0 1010.2 1.4 60
2019-08-10 01:00:00 20.8 14 Sudoeste 32 Oeste 0 1009.8 2.8 56
2019-08-10 00:00:00 21.2 26 Oeste 41 Oeste 0 1009.3 2.9 54
2019-08-09 23:00:00 22.2 35 Oeste 67 Oeste 0 1008.8 3.1 50
2019-08-09 22:00:00 23.2 47 Oeste 66 Sudoeste 0 1007 2.3 45
2019-08-09 21:00:00 24 42 Oeste 65 Oeste 0 1006.4 1.7 44
2019-08-09 20:00:00 24.5 37 Oeste 73 Oeste 0 1005.7 2 45
2019-08-09 19:00:00 25.3 49 Oeste 68 Sudoeste 0 1004.7 1.9 37
2019-08-09 18:00:00 26 48 Oeste 81 Oeste 0 1004.7 2.4 34
2019-08-09 17:00:00 26.4 46 Oeste 82 Oeste 0 1003.7 1.2 37
2019-08-09 16:00:00 26 45 Oeste 94 Oeste 0 1002.8 0 45
2019-08-09 15:00:00 26.3 54 Oeste 83 Oeste 0 1002.3 0.1 39
2019-08-09 14:00:00 26.3 45 Oeste 75 Oeste 0 1002.5 0.8 38
2019-08-09 13:00:00 25 35 Oeste 61 Oeste 0 1002.8 1.4 40
2019-08-09 12:00:00 24.7 37 Oeste 67 Oeste 0 1002.2 1.5 43
2019-08-09 11:00:00 23.7 28 Oeste 75 Sudoeste 0 1001.7 1.9 43
2019-08-09 10:00:00 22.5 32 Oeste 63 Oeste 0 1001.4 2.2 47
2019-08-09 09:00:00 22 42 Oeste 80 Oeste 0 1000.7 1.5 51
2019-08-09 08:00:00 21.9 48 Oeste 76 Oeste 0 999.8 0 50
2019-08-09 07:00:00 21.4 51 Oeste 65 Oeste 0 999.2 -0.3 58
2019-08-09 06:00:00 21.1 35 Oeste 41 Oeste 0.2 999.2 -0.1 74
2019-08-09 05:00:00 21.2 12 Sudoeste 23 Oeste 0.2 999.8 0.4 87
2019-08-09 04:00:00 21.4 4 Sur 21 Este 0 999.5 0.7 87
2019-08-09 03:00:00 20.9 9 Sudeste 18 Este 0 999.3 0.9 87
2019-08-09 02:00:00 21.5 10 Nordeste 22 Nordeste 0 999.4 1 84
2019-08-09 01:00:00 22.5 13 Este 22 Este 0 998.8 1 80
2019-08-09 00:00:00 22.5 12 Este 26 Este 0 998.4 0.1 80
2019-08-08 23:00:00 22.7 11 Este 27 Este 0 998.4 0 78
2019-08-08 22:00:00 22.5 14 Este 21 Este 0 997.8 -0.5 78
2019-08-08 21:00:00 24.2 3 Este 19 Noroeste 0 998.3 -0.2 70
2019-08-08 20:00:00 24.4 5 Oeste 15 Este 0 998.4 -0.9 68
2019-08-08 19:00:00 25 11 Este 20 Este 0 998.3 -1.2 63
2019-08-08 18:00:00 25 11 Este 19 Este 0 998.5 -1.7 66
2019-08-08 17:00:00 24.7 9 Este 29 Este 0 999.3 -1 66
2019-08-08 16:00:00 24.7 18 Este 28 Este 0 999.5 -1.2 62
2019-08-08 15:00:00 24.5 16 Este 25 Este 0 1000.2 -0.8 65
2019-08-08 14:00:00 25.7 12 Este 21 Este 0 1000.3 -0.9 67
2019-08-08 13:00:00 25.9 12 Este 19 Este 0 1000.7 -0.7 58
2019-08-08 12:00:00 26 13 Este 18 Este 0 1001 -0.1 56
2019-08-08 11:00:00 26.1 10 Este 13 Este 0 1001.2 0.3 62
2019-08-08 10:00:00 24.2 9 Este 14 Este 0 1001.4 0.4 68
2019-08-08 09:00:00 22.6 6 Sudeste 19 Sudeste 0 1001.1 -0.1 77
2019-08-08 08:00:00 20.3 15 Sudeste 19 Sur 0 1000.9 -0.7 82
2019-08-08 07:00:00 20.9 13 Sudeste 17 Sudeste 0 1001 -0.8 79
2019-08-08 06:00:00 20.8 7 Sudeste 19 Sudeste 0 1001.2 -1.1 82
2019-08-08 05:00:00 21 9 Sudeste 19 Sudeste 0 1001.6 -1.3 83
2019-08-08 04:00:00 21.2 12 Sudeste 19 Sudeste 0 1001.8 -1.3 82
2019-08-08 03:00:00 21.1 14 Sudeste 22 Este 0.2 1002.3 -0.5 82
2019-08-08 02:00:00 20.9 13 Sudeste 20 Sudeste 0 1002.9 -0.4 86
2019-08-08 01:00:00 21.6 9 Este 25 Sur 1 1003.1 0 82
2019-08-08 00:00:00 21.7 18 Sudeste 25 Sudeste 0 1002.8 -0.5 81
2019-08-07 23:00:00 21.8 9 Sudeste 15 Sudeste 0 1003.3 -0.1 78
2019-08-07 22:00:00 21.6 10 Este 16 Este 0 1003.1 -0.6 80
2019-08-07 21:00:00 21.7 8 Este 12 Este 0 1003.3 -0.5 80
2019-08-07 20:00:00 22.1 7 Este 17 Sudeste 0.2 1003.4 -0.8 77
2019-08-07 19:00:00 22.9 12 Sur 19 Sur 0 1003.7 -1 72
2019-08-07 18:00:00 22.7 9 Este 17 Este 0 1003.8 -0.5 74
2019-08-07 17:00:00 22.3 7 Este 14 Nordeste 0 1004.2 0 81
2019-08-07 16:00:00 23.3 3 Oeste 19 Este 0 1004.7 0.5 78
2019-08-07 15:00:00 22.7 12 Este 20 Este 0 1004.3 -0.3 79
2019-08-07 14:00:00 22.2 11 Este 24 Este 0 1004.2 -0.4 77
2019-08-07 13:00:00 23 13 Este 19 Este 0 1004.2 -0.2 72
2019-08-07 12:00:00 22.7 10 Este 15 Este 0 1004.6 0.4 74
2019-08-07 11:00:00 22.7 9 Este 20 Este 0 1004.6 0.1 73
2019-08-07 10:00:00 21.3 11 Este 24 Sudeste 0 1004.4 -0.2 76
2019-08-07 09:00:00 19.5 16 Sudeste 23 Sudeste 0 1004.2 -0.4 84
2019-08-07 08:00:00 17.9 15 Sudeste 19 Sudeste 0 1004.5 0 89
2019-08-07 07:00:00 18.2 6 Sur 10 Sur 0 1004.6 0.1 88
2019-08-07 06:00:00 19 6 Sur 9 Sudeste 0 1004.6 -0.4 88
2019-08-07 05:00:00 18.9 4 Sudeste 10 Este 0 1004.5 -1 87
2019-08-07 04:00:00 19.2 7 Sudeste 10 Sudeste 0 1004.5 -1.4 88
2019-08-07 03:00:00 19.9 4 Sudoeste 10 Sudoeste 0 1005 -1.2 87
2019-08-07 02:00:00 20 7 Oeste 10 Oeste 0 1005.5 -0.6 87
2019-08-07 01:00:00 20.2 4 Oeste 6 Oeste 0.2 1005.9 0.2 87
2019-08-07 00:00:00 20.2 2 Sudoeste 21 Noroeste 0 1006.2 0.9 87
2019-08-06 23:00:00 20 15 Noroeste 24 Noroeste 0 1006.1 0.2 87
2019-08-06 22:00:00 20.7 8 Norte 15 Noroeste 0 1005.7 -0.4 85
2019-08-06 21:00:00 20.9 4 Norte 13 Nordeste 0 1005.3 -1.6 83
2019-08-06 20:00:00 21.3 5 Este 14 Nordeste 0 1005.9 -0.9 80
2019-08-06 19:00:00 21.6 3 Noroeste 16 Oeste 0 1006.1 -0.4 78
2019-08-06 18:00:00 22 6 Sudoeste 13 Oeste 0 1006.9 0.6 74
2019-08-06 17:00:00 22.5 8 Oeste 12 Oeste 0 1006.8 0.2 73
2019-08-06 16:00:00 22.9 4 Norte 9 Sudeste 0 1006.5 -0.1 69
2019-08-06 15:00:00 23.7 5 Este 10 Este 0 1006.3 -0.1 65
2019-08-06 14:00:00 23 4 Nordeste 9 Nordeste 0 1006.6 -0.1 68
2019-08-06 13:00:00 22.7 3 Nordeste 8 Nordeste 0 1006.6 0.1 69
2019-08-06 12:00:00 23.2 4 Nordeste 6 Oeste 0 1006.4 -0.2 68
2019-08-06 11:00:00 22 0 Calma 7 Oeste 0 1006.7 0.5 75
2019-08-06 10:00:00 20.5 3 Oeste 11 Sudeste 0 1006.5 0.1 77
2019-08-06 09:00:00 18.5 6 Sur 17 Sudeste 0 1006.6 -0.3 82
2019-08-06 08:00:00 17.1 13 Sur 19 Sur 0 1006.2 -0.6 84
2019-08-06 07:00:00 17.3 13 Sur 15 Sur 0 1006.4 -1.1 82
2019-08-06 06:00:00 17.9 8 Sudoeste 12 Sur 0 1006.9 -0.7 84
2019-08-06 05:00:00 17.1 10 Sur 16 Sur 0 1006.8 -1.2 84
2019-08-06 04:00:00 17.3 10 Sur 13 Sur 0 1007.5 -0.7 83
2019-08-06 03:00:00 17.2 10 Sur 20 Sudeste 0 1007.6 -0.9 83
2019-08-06 02:00:00 18.1 12 Sudeste 17 Sudeste 0 1008 -0.9 81
2019-08-06 01:00:00 18.3 13 Sudeste 17 Sudeste 0 1008.2 -0.4 80
2019-08-06 00:00:00 18.6 12 Sudeste 15 Sudeste 0 1008.5 0.1 80
2019-08-05 23:00:00 19 3 Sudeste 5 Sudeste 0 1008.9 0.6 76
2019-08-05 22:00:00 20.6 3 Sudeste 6 Sudeste 0 1008.6 0.3 72
2019-08-05 21:00:00 21.7 5 Sudeste 10 Sudeste 0 1008.4 0.2 69
2019-08-05 20:00:00 22.1 5 Este 16 Este 0 1008.3 -0.1 69
2019-08-05 19:00:00 22.4 10 Este 17 Este 0 1008.3 -0.3 69
2019-08-05 18:00:00 22.7 8 Nordeste 19 Este 0 1008.2 -0.6 66
2019-08-05 17:00:00 22.9 10 Este 38 Norte 0 1008.4 -0.6 64
2019-08-05 16:00:00 23.1 12 Este 18 Este 0 1008.6 -0.7 67
2019-08-05 15:00:00 22.8 6 Nordeste 14 Este 0 1008.8 -0.6 69
2019-08-05 14:00:00 22.4 7 Este 17 Este 0 1009 -0.4 70
2019-08-05 13:00:00 22.3 6 Nordeste 15 Este 0 1009.3 -0.2 73
2019-08-05 12:00:00 21.8 8 Nordeste 12 Nordeste 0 1009.4 0 74
2019-08-05 11:00:00 21.4 5 Nordeste 7 Nordeste 0 1009.4 -0.1 76
2019-08-05 10:00:00 20.7 3 Noroeste 10 Sur 0 1009.5 -0.1 82
2019-08-05 09:00:00 18.7 8 Sudeste 17 Sudeste 0 1009.4 0 88
2019-08-05 08:00:00 17.2 13 Sudeste 17 Sudeste 0 1009.5 -0.1 89
2019-08-05 07:00:00 17.3 9 Sur 12 Sur 0 1009.6 -0.1 87
2019-08-05 06:00:00 18.6 8 Sudoeste 12 Sudoeste 0 1009.4 -0.2 84
2019-08-05 05:00:00 18.6 10 Sudoeste 13 Oeste 0 1009.6 -0.3 85
2019-08-05 04:00:00 18.8 9 Sudoeste 12 Oeste 0 1009.7 -0.7 86
2019-08-05 03:00:00 18.3 4 Sur 6 Oeste 0 1009.6 -1 84
2019-08-05 02:00:00 19.4 3 Sudeste 7 Sur 0 1009.9 -0.8 83
2019-08-05 01:00:00 19.7 4 Sur 6 Sur 0 1010.4 0.1 82
2019-08-05 00:00:00 19.8 4 Sudoeste 6 Sudoeste 0 1010.6 0.3 80
2019-08-04 23:00:00 19.9 3 Oeste 15 Oeste 0 1010.7 0.6 81
2019-08-04 22:00:00 20.1 15 Noroeste 20 Noroeste 0 1010.3 0.4 81
2019-08-04 21:00:00 20.9 4 Oeste 6 Oeste 0 1010.3 0.6 79
2019-08-04 20:00:00 21.2 2 Norte 6 Oeste 0 1010.1 0.6 77
2019-08-04 19:00:00 22 3 Oeste 9 Oeste 0 1009.9 0.6 76
2019-08-04 18:00:00 21.9 4 Noroeste 11 Noroeste 0 1009.7 0.4 74
2019-08-04 17:00:00 22 8 Noroeste 13 Oeste 0 1009.5 0 73
2019-08-04 16:00:00 22.3 5 Norte 11 Nordeste 0 1009.3 -0.5 73
2019-08-04 15:00:00 22.2 4 Nordeste 12 Noroeste 0 1009.3 -0.3 77
2019-08-04 14:00:00 23.4 6 Noroeste 14 Oeste 0 1009.5 0.2 75
2019-08-04 13:00:00 22 11 Oeste 18 Oeste 0 1009.8 0.5 81
2019-08-04 12:00:00 21.1 9 Oeste 15 Oeste 0 1009.6 0.6 82
2019-08-04 11:00:00 20.2 10 Oeste 14 Oeste 0 1009.3 0.3 83
2019-08-04 10:00:00 19.9 5 Oeste 9 Sur 0 1009.3 0.5 83
2019-08-04 09:00:00 19.3 8 Sur 9 Sur 0 1009 0.3 86
2019-08-04 08:00:00 18.8 5 Sur 8 Sur 0 1009 0.2 86
2019-08-04 07:00:00 19.1 5 Sur 9 Oeste 0 1008.8 -0.1 84
2019-08-04 06:00:00 19.7 6 Oeste 10 Oeste 0 1008.7 -0.3 84
2019-08-04 05:00:00 19.5 10 Oeste 13 Sudoeste 0 1008.8 -0.3 85
2019-08-04 04:00:00 19.4 10 Sudoeste 13 Sudoeste 0 1008.9 -0.4 86
2019-08-04 03:00:00 18.7 7 Sudoeste 13 Sur 0 1009 -0.3 88
2019-08-04 02:00:00 17.7 12 Sur 14 Sudeste 0 1009.1 -0.3 88
2019-08-04 01:00:00 17.8 8 Sur 10 Sur 0 1009.3 0.4 86
2019-08-04 00:00:00 18.6 3 Sur 7 Sudoeste 0 1009.3 0.8 85
2019-08-03 23:00:00 19.8 4 Sudoeste 9 Oeste 0 1009.4 0.9 84
2019-08-03 22:00:00 20.8 5 Oeste 9 Oeste 0 1008.9 0.1 81
2019-08-03 21:00:00 21.6 4 Oeste 8 Oeste 0 1008.5 -0.1 79
2019-08-03 20:00:00 23 5 Oeste 15 Oeste 0 1008.5 -0.3 74
2019-08-03 19:00:00 23.6 11 Oeste 17 Oeste 0 1008.8 0.1 73
2019-08-03 18:00:00 23.2 13 Noroeste 18 Oeste 0 1008.6 -0.1 74
2019-08-03 17:00:00 23.5 10 Noroeste 14 Oeste 0 1008.8 0.2 73
2019-08-03 16:00:00 22.2 8 Noroeste 15 Noroeste 0 1008.7 -0.1 75
2019-08-03 15:00:00 22.5 6 Noroeste 13 Oeste 0 1008.7 0.1 74
2019-08-03 14:00:00 21.8 7 Nordeste 12 Nordeste 0 1008.6 0 78
2019-08-03 13:00:00 21.6 6 Nordeste 12 Nordeste 0 1008.8 0.3 80
2019-08-03 12:00:00 20.7 3 Noroeste 8 Oeste 0 1008.6 0.2 82
2019-08-03 11:00:00 20.3 4 Oeste 7 Este 0 1008.6 0.2 85
2019-08-03 10:00:00 19.6 4 Este 12 Sudeste 0 1008.5 0.2 86
2019-08-03 09:00:00 18.8 10 Sudeste 13 Sudeste 0 1008.4 0.1 88
2019-08-03 08:00:00 18.4 7 Sudeste 10 Sur 0 1008.4 0 87
2019-08-03 07:00:00 18.7 6 Sur 13 Oeste 0 1008.3 -0.2 87
2019-08-03 06:00:00 18.8 7 Sudoeste 14 Oeste 0 1008.3 -0.4 88
2019-08-03 05:00:00 18.5 12 Sudoeste 18 Oeste 0 1008.4 -0.7 88
2019-08-03 04:00:00 18.8 10 Oeste 14 Oeste 0 1008.5 -1 89
2019-08-03 03:00:00 17.1 8 Sur 12 Sudeste 0 1008.7 -1.1 89
2019-08-03 02:00:00 17.6 9 Sudeste 12 Sudeste 0 1009.1 -0.9 87
2019-08-03 01:00:00 18.9 9 Sudoeste 11 Sudoeste 0 1009.5 0.1 87
2019-08-03 00:00:00 19.2 8 Oeste 14 Nordeste 0 1009.8 0.6 86
2019-08-02 23:00:00 19.3 12 Este 22 Este 0 1010 0.9 87
2019-08-02 22:00:00 19.6 13 Nordeste 33 Nordeste 0 1009.4 0.1 86
2019-08-02 21:00:00 20.3 20 Nordeste 36 Nordeste 0 1009.2 -0.2 83
2019-08-02 20:00:00 20.7 21 Nordeste 39 Nordeste 0 1009.1 -0.8 80
2019-08-02 19:00:00 21 23 Nordeste 41 Nordeste 0 1009.3 -0.9 79
2019-08-02 18:00:00 21.4 26 Nordeste 44 Nordeste 0 1009.4 -1 78
2019-08-02 17:00:00 21.5 26 Nordeste 43 Nordeste 0 1009.9 -0.5 78
2019-08-02 16:00:00 21.7 26 Nordeste 39 Nordeste 0 1010.2 -0.6 76
2019-08-02 15:00:00 22 20 Nordeste 40 Nordeste 0 1010.4 -0.5 76
2019-08-02 14:00:00 21.9 18 Nordeste 33 Nordeste 0 1010.4 -0.6 75
2019-08-02 13:00:00 22.2 8 Nordeste 23 Nordeste 0 1010.8 -0.1 73
2019-08-02 12:00:00 21.6 11 Este 24 Nordeste 0 1010.9 0.3 73
2019-08-02 11:00:00 21 10 Este 18 Este 0 1011 0.8 75
2019-08-02 10:00:00 19.5 5 Nordeste 10 Nordeste 0 1010.9 0.9 78
2019-08-02 09:00:00 18 5 Este 15 Sudeste 0 1010.6 1 84
2019-08-02 08:00:00 15.6 12 Sudeste 15 Sudeste 0 1010.2 0.4 87
2019-08-02 07:00:00 15.3 9 Sudeste 14 Sudeste 0 1010 0 86
2019-08-02 06:00:00 15.9 10 Sudeste 15 Sudeste 0 1009.6 -0.6 85
2019-08-02 05:00:00 16.6 10 Sudeste 16 Sudeste 0 1009.8 -0.9 85
2019-08-02 04:00:00 17 9 Sudeste 15 Este 0 1010 -1 85
2019-08-02 03:00:00 18.1 9 Nordeste 22 Este 0 1010.2 -0.7 86
2019-08-02 02:00:00 18.7 12 Este 23 Nordeste 0 1010.7 -0.2 89
2019-08-02 01:00:00 19.2 15 Nordeste 26 Nordeste 0 1011 0.5 88
2019-08-02 00:00:00 19.3 15 Nordeste 33 Nordeste 0 1010.9 0.9 88
2019-08-01 23:00:00 19.4 20 Nordeste 31 Nordeste 0 1010.9 1.2 87
2019-08-01 22:00:00 19.5 15 Nordeste 36 Nordeste 0 1010.5 1 86
2019-08-01 21:00:00 19.7 22 Nordeste 34 Nordeste 0 1010 0.7 84
2019-08-01 20:00:00 20 19 Nordeste 32 Nordeste 0 1009.7 0.5 83
2019-08-01 19:00:00 20.4 18 Nordeste 35 Nordeste 0 1009.5 0.4 81
2019-08-01 18:00:00 21 22 Nordeste 34 Nordeste 0 1009.3 0 78
2019-08-01 17:00:00 21.1 17 Nordeste 35 Nordeste 0 1009.2 -0.1 78
2019-08-01 16:00:00 20.6 22 Nordeste 35 Nordeste 0 1009.1 -0.2 78
2019-08-01 15:00:00 20.8 15 Nordeste 37 Nordeste 0 1009.3 0 79
2019-08-01 14:00:00 19.8 21 Nordeste 39 Nordeste 0 1009.3 0.3 80
2019-08-01 13:00:00 19.2 17 Nordeste 35 Nordeste 0 1009.3 0.6 84
2019-08-01 12:00:00 19 18 Nordeste 38 Nordeste 0 1009.3 0.9 83
2019-08-01 11:00:00 18.8 19 Nordeste 38 Nordeste 0 1009 0.7 83
2019-08-01 10:00:00 19.4 15 Nordeste 32 Nordeste 0 1008.7 0.4 80
2019-08-01 09:00:00 18.8 15 Nordeste 33 Nordeste 0 1008.4 0.2 80
2019-08-01 08:00:00 18.6 14 Este 27 Este 0 1008.3 -0.1 77
2019-08-01 07:00:00 18.7 17 Este 27 Este 0 1008.3 -0.6 79
2019-08-01 06:00:00 18.9 18 Este 32 Este 0 1008.2 -1 77
2019-08-01 05:00:00 18.9 18 Este 37 Nordeste 0 1008.4 -1.3 79
2019-08-01 04:00:00 19 19 Este 34 Este 0 1008.9 -1.2 79
2019-08-01 03:00:00 18.9 18 Este 28 Este 0 1009.2 -1.1 77
2019-08-01 02:00:00 18.8 17 Este 31 Este 0 1009.7 -0.6 77
2019-08-01 01:00:00 18.6 14 Este 31 Este 0 1010.1 0 75
2019-08-01 00:00:00 18.8 21 Este 37 Nordeste 0 1010.3 0.4 75
2019-07-31 23:00:00 18.9 22 Nordeste 41 Nordeste 0 1010.3 0.5 76
2019-07-31 22:00:00 18.9 24 Nordeste 43 Nordeste 0 1010.1 -0.2 74
2019-07-31 21:00:00 19.2 23 Nordeste 44 Nordeste 0 1009.9 -0.8 75
2019-07-31 20:00:00 19.5 24 Nordeste 45 Nordeste 0 1009.8 -1 71
2019-07-31 19:00:00 20.2 26 Nordeste 45 Nordeste 0 1010.3 -0.8 69
2019-07-31 18:00:00 20.1 24 Nordeste 42 Nordeste 0 1010.7 -0.4 71
2019-07-31 17:00:00 19.6 23 Nordeste 42 Nordeste 0 1010.8 -0.7 71
2019-07-31 16:00:00 20.1 21 Nordeste 43 Nordeste 0 1011.1 -0.9 69
2019-07-31 15:00:00 20.1 18 Nordeste 42 Nordeste 0 1011.1 -1.2 69
2019-07-31 14:00:00 20.7 19 Nordeste 41 Nordeste 0 1011.5 -1.3 66
2019-07-31 13:00:00 20.7 10 Norte 34 Nordeste 0 1012 -0.8 67
2019-07-31 12:00:00 19.5 10 Norte 29 Nordeste 0 1012.3 -0.5 68
2019-07-31 11:00:00 19.1 4 Nordeste 14 Nordeste 0 1012.8 0.1 70
2019-07-31 10:00:00 18 7 Este 14 Sudeste 0 1012.8 0.2 69
2019-07-31 09:00:00 14.3 12 Sudeste 21 Sudeste 0 1012.8 0.2 79
2019-07-31 08:00:00 12.3 17 Sudeste 23 Sudeste 0 1012.7 -0.2 84
2019-07-31 07:00:00 12.2 17 Sudeste 22 Sudeste 0 1012.6 -0.5 83
2019-07-31 06:00:00 12.5 17 Sudeste 23 Sudeste 0 1012.6 -0.9 83
2019-07-31 05:00:00 13.1 18 Sudeste 24 Sudeste 0 1012.9 -1.1 81
2019-07-31 04:00:00 13.4 17 Sudeste 24 Sudeste 0 1013.1 -1.2 81
2019-07-31 03:00:00 13.8 17 Sudeste 22 Sudeste 0 1013.5 -1.3 80
2019-07-31 02:00:00 14.2 18 Sudeste 22 Sudeste 0 1014 -0.8 79
2019-07-31 01:00:00 14.4 16 Sudeste 21 Sudeste 0 1014.3 0 80
2019-07-31 00:00:00 14.8 14 Sur 15 Sur 0 1014.8 0.6 77
2019-07-30 23:00:00 15.7 8 Sur 16 Noroeste 0 1014.8 0.7 72
2019-07-30 22:00:00 18 3 Noroeste 13 Oeste 0 1014.3 0.4 67
2019-07-30 21:00:00 20 8 Oeste 15 Oeste 0 1014.2 -0.1 61
2019-07-30 20:00:00 21.1 10 Noroeste 18 Noroeste 0 1014.1 -0.1 53
2019-07-30 19:00:00 20.8 15 Oeste 28 Oeste 0 1013.9 -0.4 55
2019-07-30 18:00:00 21 18 Oeste 34 Noroeste 0 1014.3 -0.1 55
2019-07-30 17:00:00 20.9 24 Oeste 32 Oeste 0 1014.2 -0.2 56
2019-07-30 16:00:00 20.7 23 Oeste 33 Noroeste 0 1014.3 0.1 57
2019-07-30 15:00:00 22.2 19 Oeste 31 Oeste 0 1014.4 0.3 55
2019-07-30 14:00:00 20.3 24 Oeste 37 Oeste 0 1014.4 0.8 61
2019-07-30 13:00:00 21.4 25 Oeste 37 Oeste 0 1014.2 0.8 59
2019-07-30 12:00:00 21.5 19 Oeste 40 Oeste 0 1014.1 1.1 54
2019-07-30 11:00:00 19.5 19 Oeste 43 Oeste 0 1013.6 1.3 59
2019-07-30 10:00:00 18.8 26 Oeste 36 Oeste 0 1013.4 1.6 60
2019-07-30 09:00:00 17.7 23 Oeste 34 Oeste 0 1013 1.1 61
2019-07-30 08:00:00 16.7 27 Oeste 61 Oeste 0 1012.3 0.6 65
2019-07-30 07:00:00 17.3 31 Oeste 39 Oeste 0 1011.8 0.3 58
2019-07-30 06:00:00 17.2 29 Oeste 40 Oeste 0 1011.9 0.2 63
2019-07-30 05:00:00 17.1 30 Oeste 46 Oeste 0 1011.7 0.8 64
2019-07-30 04:00:00 17.6 31 Oeste 42 Sudoeste 0 1011.5 1 61
2019-07-30 03:00:00 17.5 26 Oeste 43 Oeste 0 1011.7 1.7 62
2019-07-30 02:00:00 17.5 34 Oeste 48 Oeste 0 1010.9 1.2 61
2019-07-30 01:00:00 17.6 33 Oeste 48 Oeste 0 1010.5 1.9 61
2019-07-30 00:00:00 17.7 30 Oeste 41 Oeste 0 1010 2.1 63
2019-07-29 23:00:00 18 21 Oeste 57 Oeste 0 1009.7 2.4 65
2019-07-29 22:00:00 18.6 31 Oeste 55 Oeste 0 1008.6 2.2 65
2019-07-29 21:00:00 19.6 31 Oeste 66 Noroeste 0 1007.9 2.3 61
2019-07-29 20:00:00 20.3 33 Oeste 62 Oeste 0 1007.3 2 62
2019-07-29 19:00:00 21.4 44 Oeste 71 Oeste 0 1006.4 1.8 60
2019-07-29 18:00:00 20.7 43 Oeste 71 Oeste 0 1005.6 1.3 65
2019-07-29 17:00:00 21.3 36 Oeste 74 Oeste 0 1005.3 1.1 62
2019-07-29 16:00:00 22.1 46 Oeste 77 Noroeste 0 1004.6 0.8 61
2019-07-29 15:00:00 23.4 38 Oeste 82 Oeste 0 1004.3 0.4 48
2019-07-29 14:00:00 23.6 36 Oeste 62 Oeste 0 1004.2 0.5 44
2019-07-29 13:00:00 23.3 42 Oeste 71 Oeste 0 1003.8 0.6 42
2019-07-29 12:00:00 22.4 40 Oeste 64 Oeste 0 1003.9 0.7 48
2019-07-29 11:00:00 21 32 Oeste 68 Oeste 0 1003.7 0.9 52
2019-07-29 10:00:00 21.4 38 Oeste 60 Oeste 0 1003.2 1.1 52
2019-07-29 09:00:00 20.2 23 Oeste 35 Oeste 0 1003.2 1.3 66
2019-07-29 08:00:00 19.5 13 Oeste 35 Oeste 0 1002.8 0.8 70
2019-07-29 07:00:00 20.3 31 Oeste 50 Oeste 0 1002.1 0.3 60
2019-07-29 06:00:00 20.4 44 Oeste 63 Oeste 0 1001.9 0 60
2019-07-29 05:00:00 18.8 15 Oeste 26 Sudoeste 0 1002 0.1 69
2019-07-29 04:00:00 17.4 10 Sur 14 Sur 0 1001.8 -0.5 80
2019-07-29 03:00:00 18.1 5 Nordeste 17 Sudeste 0 1001.9 -0.3 81
2019-07-29 02:00:00 18 15 Sudeste 20 Sudeste 0 1001.9 0 83
2019-07-29 01:00:00 18.8 4 Sudoeste 20 Sudoeste 0 1002.3 0.9 78
2019-07-29 00:00:00 19.5 13 Oeste 27 Oeste 0 1002.2 1.1 81
2019-07-28 23:00:00 20 10 Oeste 13 Oeste 0 1001.9 0.6 76
2019-07-28 22:00:00 20.1 12 Este 28 Este 0 1001.4 -0.4 73
2019-07-28 21:00:00 20.6 16 Este 41 Este 0 1001.1 -1.4 72
2019-07-28 20:00:00 20.5 24 Este 41 Este 0 1001.3 -2.2 73
2019-07-28 19:00:00 20.5 21 Nordeste 39 Nordeste 0 1001.8 -2.3 73
2019-07-28 18:00:00 20.7 22 Nordeste 40 Nordeste 0 1002.5 -2.2 71
2019-07-28 17:00:00 20.9 21 Nordeste 38 Nordeste 0 1003.5 -1.9 72
2019-07-28 16:00:00 21 20 Nordeste 31 Nordeste 0 1004.1 -2 70
2019-07-28 15:00:00 21.3 16 Nordeste 30 Nordeste 0 1004.7 -1.7 67
2019-07-28 14:00:00 21.7 6 Norte 22 Nordeste 0 1005.4 -1.1 65
2019-07-28 13:00:00 21.3 5 Nordeste 14 Nordeste 0 1006.1 -0.6 67
2019-07-28 12:00:00 20.3 7 Norte 13 Norte 0 1006.4 -0.3 68
2019-07-28 11:00:00 20.2 4 Noroeste 9 Sur 0 1006.5 -0.3 67
2019-07-28 10:00:00 18 10 Sur 18 Sur 0 1006.7 0 71
2019-07-28 09:00:00 15.3 16 Sudeste 26 Sudeste 0 1006.7 0.1 79
2019-07-28 08:00:00 13.3 19 Sudeste 24 Sur 0 1006.8 -0.5 84
2019-07-28 07:00:00 13.1 18 Sudeste 24 Sudeste 0 1006.7 -0.7 84
2019-07-28 06:00:00 13.5 19 Sudeste 25 Sudeste 0 1006.6 -1.2 84
2019-07-28 05:00:00 13.9 18 Sur 22 Sur 0 1007.3 -0.8 84
2019-07-28 04:00:00 14.6 14 Sur 21 Sudeste 0 1007.4 -0.9 84
2019-07-28 03:00:00 15.1 17 Sudeste 22 Sudeste 0 1007.8 -0.4 83
2019-07-28 02:00:00 15.4 14 Sur 18 Sur 0 1008.1 -0.1 84
2019-07-28 01:00:00 15.8 12 Sur 17 Sur 0 1008.3 0.6 83
2019-07-28 00:00:00 15.8 13 Sur 16 Sur 0 1008.2 0.8 83
2019-07-27 23:00:00 17 9 Sur 17 Oeste 0 1008.2 1 78
2019-07-26 12:00:00 19.2 19 Oeste 27 Noroeste 0 1009 0.2 75
2019-07-26 11:00:00 20.3 14 Oeste 22 Oeste 0 1009 0.7 71
2019-07-26 10:00:00 18.8 8 Oeste 15 Oeste 0 1009.1 1.2 73
2019-07-26 09:00:00 17.2 8 Sudoeste 16 Sudoeste 0 1008.8 0.8 81
2019-07-26 08:00:00 17.7 10 Sudoeste 22 Sudoeste 0 1008.3 0.3 73
2019-07-26 07:00:00 17.9 16 Sudoeste 26 Oeste 0 1007.9 -0.1 73
2019-07-26 06:00:00 17 14 Sudoeste 21 Sudoeste 0 1008 -0.3 80
2019-07-26 05:00:00 16.9 6 Sudoeste 23 Oeste 0 1008 -0.6 86
2019-07-26 04:00:00 17.9 8 Oeste 17 Oeste 0 1008 -0.7 87
2019-07-26 03:00:00 18.3 9 Sur 11 Sur 0 1008.3 -0.5 89
2019-07-26 02:00:00 18.7 5 Sur 9 Sur 0 1008.6 0.2 89
2019-07-26 01:00:00 18.8 4 Sudeste 10 Sudeste 0 1008.7 1.1 89
2019-07-26 00:00:00 18.8 7 Sudeste 11 Este 0 1008.8 1.7 89
2019-07-25 23:00:00 18.8 8 Este 14 Este 0 1008.4 1.3 89
2019-07-25 22:00:00 18.6 12 Este 24 Este 1.4 1007.6 1.1 88
2019-07-25 21:00:00 19.4 6 Este 13 Sur 0.4 1007.1 0.3 86
2019-07-25 20:00:00 19.5 6 Nordeste 17 Sudeste 0.2 1007.1 0.4 82
2019-07-25 19:00:00 20.1 13 Sudeste 17 Este 0 1006.5 0.2 77
2019-07-25 18:00:00 21 2 Sudoeste 7 Oeste 0 1006.8 1 75
2019-07-25 17:00:00 20.8 3 Oeste 11 Oeste 0 1006.7 1.9 77
2019-07-25 16:00:00 20.7 8 Noroeste 27 Oeste 0 1006.3 2.1 79
2019-07-25 15:00:00 20.4 24 Oeste -- -- 0 1005.8 1.7 82
2019-07-25 14:00:00 23.6 12 Este 20 Este 0 1004.8 0.9 64
2019-07-25 13:00:00 23.6 14 Este 19 Este 0 1004.2 0.3 63
2019-07-25 12:00:00 23 10 Este 17 Este 0 1004.1 0.2 72
2019-07-25 11:00:00 20.4 13 Este 20 Este 0 1003.9 0.3 83
2019-07-25 10:00:00 21.4 4 Sudeste 8 Sur 0 1003.9 0.7 84
2019-07-25 09:00:00 19.4 2 Sur 8 Sudoeste 0 1003.9 1.2 89
2019-07-25 08:00:00 19 6 Sudoeste 16 Oeste 0 1003.6 0.7 90
2019-07-25 07:00:00 18.1 4 Sudoeste 14 Sudeste 0 1003.2 -0.1 91
2019-07-25 06:00:00 18.2 8 Este 12 Sudeste 0 1002.7 -0.7 91
2019-07-25 05:00:00 18.8 5 Sudeste 11 Este 0 1002.9 -0.9 90
2019-07-25 04:00:00 19.4 5 Sudoeste 14 Este 0 1003.3 -1.1 90
2019-07-25 03:00:00 19.8 8 Este 17 Este 0 1003.4 -1.7 90
2019-07-25 02:00:00 20.2 8 Este 12 Este 0 1003.8 -1.2 89
2019-07-25 01:00:00 20.7 3 Sudeste 15 Oeste 0 1004.4 -0.4 88
2019-07-25 00:00:00 20.5 10 Oeste 14 Oeste 0 1005.1 0.7 88
2019-07-24 23:00:00 20.9 3 Oeste 5 Sur 0 1005 0.7 86
2019-07-24 22:00:00 21.3 2 Sur 7 Noroeste 0 1004.8 0.7 83
2019-07-24 21:00:00 22.2 3 Nordeste 10 Noroeste 0 1004.4 0.1 82
2019-07-24 20:00:00 23.1 7 Oeste 12 Oeste 0 1004.3 0 78
2019-07-24 19:00:00 23.1 6 Oeste 11 Oeste 0 1004.1 -0.8 79
2019-07-24 18:00:00 23.1 4 Nordeste 20 Este 0 1004.3 -0.8 77
2019-07-24 17:00:00 23 15 Este 23 Este 0 1004.3 -1.3 76
2019-07-24 16:00:00 23.2 13 Este 19 Este 0 1004.9 -0.9 73
2019-07-24 15:00:00 23.2 11 Este 21 Este 0 1005.1 -1.1 75
2019-07-24 14:00:00 22.5 14 Este 28 Este 0 1005.6 -1.2 76
2019-07-24 13:00:00 21.8 17 Este 30 Este 0 1005.8 -1.6 76
2019-07-24 12:00:00 21 20 Este 28 Este 0 1006.2 -1.5 80
2019-07-24 11:00:00 20.4 12 Este 19 Este 0 1006.8 -0.7 82
2019-07-24 10:00:00 20.1 7 Este 10 Este 0 1007.4 0.1 83
2019-07-24 09:00:00 19.4 4 Sudeste -- -- 0 1007.7 0.7 87
2019-07-24 08:00:00 17.9 11 Sudeste 17 Sudeste 0 1007.5 0.4 88
2019-07-24 07:00:00 17.6 12 Sudeste 17 Sudeste 0 1007.3 -0.8 88
2019-07-24 06:00:00 17.6 12 Sudeste 20 Sudeste 0 1007 -1.8 88
2019-07-24 05:00:00 17.7 15 Sudeste 19 Sudeste 0 1007.1 -2.2 89
2019-07-24 04:00:00 18 8 Sur 12 Sudoeste 0 1008.1 -1.5 88
2019-07-24 03:00:00 18.3 5 Sudoeste 13 Sudoeste 0 1008.8 -0.8 88
2019-07-24 02:00:00 18.8 12 Sudoeste 16 Oeste 0 1009.3 0.6 88
2019-07-24 01:00:00 19.4 2 Nordeste 13 Este 0 1009.6 0.8 86
2019-07-24 00:00:00 19.8 7 Este 17 Este 0 1009.6 0.4 85
2019-07-23 23:00:00 19.7 9 Este 15 Este 0 1008.7 -0.6 85
2019-07-23 22:00:00 21.2 6 Sudeste 12 Sudeste 0 1008.8 -0.2 81
2019-07-23 21:00:00 21.4 5 Sudoeste 12 Oeste 0 1009.2 0.1 81
2019-07-23 20:00:00 21 9 Oeste 24 Oeste 0 1009.3 0.8 82
2019-07-23 19:00:00 20.8 20 Oeste 27 Oeste 0 1009 1 84
2019-07-23 18:00:00 20.7 22 Oeste 27 Oeste 0 1009.1 1.6 86
2019-07-23 17:00:00 20.1 19 Oeste 24 Oeste 0 1008.5 0.9 88
2019-07-23 16:00:00 20.3 19 Oeste 27 Oeste 0 1008 1.1 88
2019-07-23 15:00:00 20.8 13 Oeste 19 Oeste 0 1007.5 1 85
2019-07-23 14:00:00 22.2 11 Oeste 29 Oeste 0 1007.6 1 82
2019-07-23 13:00:00 22.8 10 Oeste 16 Oeste 0 1006.9 -0.2 79
2019-07-23 12:00:00 22.4 7 Noroeste 10 Noroeste 0 1006.5 -0.6 82
2019-07-23 11:00:00 21.7 5 Oeste 10 Noroeste 0 1006.6 0.4 86
2019-07-23 10:00:00 21 2 Noroeste 27 Oeste 0 1007.1 0.4 90
2019-07-23 09:00:00 18.5 23 Oeste 30 Oeste 0 1007.1 0.2 91
2019-07-23 08:00:00 20 8 Este 16 Sudeste 0 1006.2 -1.2 91
2019-07-23 07:00:00 19.7 8 Sudoeste 14 Oeste 0 1006.7 -1.1 91
2019-07-23 06:00:00 19.9 4 Noroeste 6 Oeste 0 1006.9 -1.7 90
2019-07-23 05:00:00 20.2 5 Sudoeste 9 Sudoeste 0 1007.4 -1.4 90
2019-07-23 04:00:00 20 2 Sudoeste 12 Sudoeste 0 1007.8 -1.3 90
2019-07-23 03:00:00 19.6 5 Sudoeste 12 Sudoeste 0 1008.6 -1.2 90
2019-07-23 02:00:00 19.1 8 Sudoeste 14 Sudoeste 0 1008.8 -1.4 90
2019-07-23 01:00:00 19.5 4 Sudeste 14 Este 0 1009.1 -0.9 90
2019-07-23 00:00:00 19.7 9 Este 22 Este 0 1009.8 -0.1 90
2019-07-22 23:00:00 19.8 10 Este 29 Este 0 1010.2 0.3 91
2019-07-22 22:00:00 19.8 17 Este 33 Este 0 1010 -0.2 90
2019-07-22 21:00:00 19.6 15 Nordeste 33 Este 0 1009.9 -0.5 89
2019-07-22 20:00:00 20.2 28 Este 34 Este 0 1009.9 -0.9 87
2019-07-22 19:00:00 20.4 19 Nordeste 35 Este 0 1010.2 -1 85
2019-07-22 18:00:00 20.7 21 Nordeste 41 Nordeste 0 1010.4 -1.2 84
2019-07-22 17:00:00 21 18 Nordeste 35 Este 0 1010.8 -1.1 83
2019-07-22 16:00:00 21.2 19 Nordeste 39 Nordeste 0 1011.2 -1.2 83
2019-07-22 15:00:00 21.4 22 Nordeste 39 Nordeste 0 1011.6 -1.3 82
2019-07-22 14:00:00 21.1 22 Nordeste 33 Nordeste 0 1011.9 -1.1 83
2019-07-22 13:00:00 21 15 Este 31 Nordeste 0 1012.4 -0.7 84
2019-07-22 12:00:00 20.4 19 Este 36 Nordeste 0 1012.9 -0.2 86
2019-07-22 11:00:00 20.3 15 Este 31 Este 0 1013 -0.1 86
2019-07-22 10:00:00 19.4 18 Este 30 Este 0 1013.1 -0.2 88
2019-07-22 09:00:00 19.2 15 Este 33 Este 0 1013.1 -0.4 89
2019-07-22 08:00:00 19.1 17 Este 30 Este 0 1013.1 -0.5 90
2019-07-22 07:00:00 19 17 Este 31 Este 0 1013.3 -0.6 91
2019-07-22 06:00:00 18.9 17 Este 32 Este 0 1013.5 -0.7 90
2019-07-22 05:00:00 19.5 22 Este 35 Este 0 1013.6 -1.1 90
2019-07-22 04:00:00 19.4 17 Este 31 Este 0 1013.9 -1.3 90
2019-07-22 03:00:00 19.3 17 Este 26 Este 0 1014.2 -1.3 89
2019-07-22 02:00:00 19.2 14 Este 26 Este 0 1014.7 -0.8 89
2019-07-22 01:00:00 19.3 15 Este 31 Nordeste 0 1015.2 0 88
2019-07-22 00:00:00 19.5 19 Nordeste 33 Nordeste 0 1015.5 0.6 88
2019-07-21 23:00:00 19.9 18 Nordeste 37 Nordeste 0 1015.5 0.9 89
2019-07-21 22:00:00 20.1 18 Este 33 Nordeste 0 1015.2 0.8 88
2019-07-21 21:00:00 20.2 19 Este 29 Nordeste 0 1014.9 0.3 87
2019-07-21 20:00:00 20.1 17 Nordeste 35 Nordeste 0 1014.6 -0.6 85
2019-07-21 19:00:00 21 27 Nordeste 37 Nordeste 0 1014.4 -0.8 82
2019-07-21 18:00:00 21.3 22 Nordeste 31 Nordeste 0 1014.6 -0.3 80
2019-07-21 17:00:00 21.1 17 Este 26 Este 0 1015.2 0.6 83
2019-07-21 16:00:00 20.5 14 Este 25 Este 0 1015.2 0.3 85
2019-07-21 15:00:00 20.2 17 Este 29 Nordeste 0 1014.9 -0.1 87
2019-07-21 14:00:00 19.7 19 Nordeste 33 Nordeste 0 1014.6 -0.4 88
2019-07-21 13:00:00 19.7 7 Nordeste 15 Este 0 1014.9 0.1 90
2019-07-21 12:00:00 18.8 13 Este 19 Este 0.2 1015 0.6 90
2019-07-21 11:00:00 18.7 11 Este 20 Nordeste 0.4 1015 1 90
2019-07-21 10:00:00 18.6 11 Este 19 Este 0.2 1014.8 1.2 88
2019-07-21 09:00:00 18.7 5 Sudeste 9 Sudeste 0.6 1014.4 1.1 87
2019-07-21 08:00:00 18.6 3 Sur 10 Noroeste 0.2 1014 0.7 86
2019-07-21 07:00:00 18.7 3 Oeste 5 Nordeste 0 1013.6 0 84
2019-07-21 06:00:00 18.7 4 Este 7 Este 0 1013.3 -0.2 84
2019-07-21 05:00:00 18.7 4 Este 11 Sudeste 0 1013.3 -0.7 84
2019-07-21 04:00:00 18.8 5 Este 9 Sudeste 0 1013.6 -0.5 84
2019-07-21 03:00:00 18.7 7 Sudeste 9 Sudeste 0 1013.5 -0.6 84
2019-07-21 02:00:00 19 2 Sur 12 Este 0 1014 -0.1 84
2019-07-21 01:00:00 19.2 5 Este 7 Este 0 1014.1 0.6 82
2019-07-21 00:00:00 19.5 3 Oeste 6 Oeste 0 1014.1 0.9 81
2019-07-20 23:00:00 19.4 5 Sudoeste 11 Oeste 0 1014.1 1.4 82
2019-07-20 22:00:00 19.4 10 Oeste 15 Oeste 0 1013.5 1.4 82
2019-07-20 21:00:00 19.7 7 Oeste 15 Oeste 0 1013.2 1.3 82
2019-07-20 20:00:00 20.2 10 Oeste 18 Noroeste 0 1012.7 1.1 80
2019-07-20 19:00:00 21.3 9 Oeste 14 Oeste 0 1012.1 0.7 77
2019-07-20 18:00:00 21.8 10 Oeste 17 Oeste 0 1011.9 0.8 77
2019-07-20 17:00:00 21.8 12 Oeste 16 Oeste 0 1011.6 1 76
2019-07-20 16:00:00 23.1 8 Oeste 12 Oeste 0 1011.4 1.4 72
2019-07-20 15:00:00 23.6 7 Oeste 15 Oeste 0 1011.1 1.7 69
2019-07-20 14:00:00 23.2 6 Noroeste 13 Oeste 0 1010.6 1.5 70
2019-07-20 13:00:00 23.2 6 Norte 14 Norte 0 1010 1 67
2019-07-20 12:00:00 22.9 10 Noroeste 14 Noroeste 0 1009.4 0.8 65
2019-07-20 11:00:00 22 7 Oeste 13 Oeste 0 1009.1 0.9 72
2019-07-20 10:00:00 20.1 10 Oeste 15 Oeste 0 1009 1 80
2019-07-20 09:00:00 19.3 9 Sur 18 Sur 0 1008.6 0.8 84
2019-07-20 08:00:00 17 13 Sudeste 17 Sur 0 1008.2 0.5 87
2019-07-20 07:00:00 17.3 9 Sur 12 Sur 0 1008 0.6 86
2019-07-20 06:00:00 18 7 Sudoeste 13 Sudoeste 0 1007.8 0.3 85
2019-07-20 05:00:00 16.9 7 Sudoeste 13 Sur 0 1007.7 0.4 86
2019-07-20 04:00:00 18.2 8 Sudoeste 14 Sudoeste 0 1007.4 -0.1 84
2019-07-20 03:00:00 17.9 8 Sudoeste 14 Sudoeste 0 1007.5 -0.1 85
2019-07-20 02:00:00 18.1 9 Sur 15 Sur 0 1007.3 -0.1 84
2019-07-20 01:00:00 18.4 8 Sur 13 Sur 0 1007.5 0.1 83
2019-07-20 00:00:00 19.4 10 Oeste 12 Oeste 0 1007.6 0.4 83
2019-07-19 23:00:00 19.5 5 Sudoeste 14 Oeste 0 1007.4 0.5 82
2019-07-19 22:00:00 20.2 9 Oeste 13 Oeste 0 1007.4 0.5 80
2019-07-19 21:00:00 22.2 6 Oeste 12 Noroeste 0 1007.2 0.1 74
2019-07-19 20:00:00 21.8 3 Nordeste 14 Oeste 0 1006.9 -0.4 75
2019-07-19 19:00:00 22 5 Nordeste 11 Nordeste 0 1006.9 -0.7 75
2019-07-19 18:00:00 22.4 6 Nordeste 12 Norte 0 1007.1 -1.1 72
2019-07-19 17:00:00 22.8 6 Nordeste 12 Norte 0 1007.3 -1 70
2019-07-19 16:00:00 22.4 6 Nordeste 12 Oeste 0 1007.6 -0.9 71
2019-07-19 15:00:00 22.7 8 Oeste 14 Noroeste 0 1008.2 -0.4 69
2019-07-19 14:00:00 21.8 8 Noroeste 12 Noroeste 0 1008.3 -0.3 70
2019-07-19 13:00:00 21.4 6 Noroeste 10 Oeste 0 1008.5 -0.4 73
2019-07-19 12:00:00 21.3 3 Noroeste 5 Noroeste 0 1008.6 -0.2 72
2019-07-19 11:00:00 20.9 3 Noroeste 6 Noroeste 0 1008.6 -0.4 73
2019-07-19 10:00:00 20.3 4 Noroeste 8 Oeste 0 1008.9 -0.1 74
2019-07-19 09:00:00 19 5 Este 12 Sudeste 0 1008.8 -0.2 79
2019-07-19 08:00:00 17.3 5 Sudoeste 18 Sur 0 1009 -0.6 83
2019-07-19 07:00:00 17.2 13 Sur 18 Sur 0 1009 -1.2 83
2019-07-19 06:00:00 17.5 12 Sur 17 Sudeste 0 1009 -1.8 82
2019-07-19 05:00:00 18.1 9 Sudeste 15 Sudeste 0 1009.6 -1.7 82
2019-07-19 04:00:00 18.1 11 Sur 16 Sudeste 0 1010.2 -1.3 82
2019-07-19 03:00:00 18.4 6 Sudeste 9 Sudeste 0 1010.8 -0.8 83
2019-07-19 02:00:00 18.6 6 Sudeste 9 Sudeste 0 1011.3 -0.3 81
2019-07-19 01:00:00 18.5 5 Sudeste 9 Sur 0 1011.5 0.1 82
2019-07-19 00:00:00 17.9 3 Sudeste 8 Este 0 1011.6 0.2 82